Time;durP1;ratioP1;P1;durP2;ratioP2;P2;SDS_P1;SDS_P2;PMS_P1;PMS_P2;Temp;Humidity;BMP_temperature;BMP_pressure;BME280_temperature;BME280_humidity;BME280_pressure;Samples;Min_cycle;Max_cycle;Signal;HPM_P1;HPM_P2
2022/11/29 00:01:41;;;;;;;;;;;;;;;8.87;54.21;99066.97;5052897;28;20295;-79
2022/11/29 00:04:06;;;;;;;;;;;;;;;8.86;54.34;99063.53;5052219;28;20410;-79
2022/11/29 00:06:32;;;;;;;;;;;;;;;8.87;54.08;99073.03;5035556;28;19924;-79
2022/11/29 00:08:58;;;;;;;;;;;;;;;8.86;54.05;99071.34;5069016;28;19923;-79
2022/11/29 00:14:08;;;;;;;;;;;;;;;8.86;54.13;99073.13;5066683;28;19924;-79
2022/11/29 00:16:34;;;;;;;;;;;;;;;8.85;54.46;99061.88;5068840;28;19917;-79
2022/11/29 00:18:59;;;;;;;;;;;;;;;8.85;54.41;99076.66;5066223;28;19925;-79
2022/11/29 00:21:25;;;;;;;;;;;;;;;8.83;54.43;99075.94;5035777;28;19917;-79
2022/11/29 00:23:50;;;;;;;;;;;;;;;8.81;54.33;99073.44;5035261;28;19923;-79
2022/11/29 00:26:15;;;;;;;;;;;;;;;8.82;54.38;99072.50;5035362;28;19917;-79
2022/11/29 00:28:40;;;;;;;;;;;;;;;8.82;54.11;99077.72;5035445;28;20403;-79
2022/11/29 00:31:16;;;;;;;;;;;;;;;8.81;54.32;99060.41;5053245;28;19921;-79
2022/11/29 00:33:41;;;;;;;;;;;;;;;8.82;54.55;99059.50;5018315;28;19920;-80
2022/11/29 00:36:06;;;;;;;;;;;;;;;8.81;53.99;99043.97;5018761;28;19924;-79
2022/11/29 00:38:32;;;;;;;;;;;;;;;8.80;54.31;99044.88;5053382;28;19916;-79
2022/11/29 00:40:57;;;;;;;;;;;;;;;8.78;54.20;99050.19;5053218;28;19921;-79
2022/11/29 00:43:22;;;;;;;;;;;;;;;8.76;54.50;99040.81;5035101;28;20363;-79
2022/11/29 00:45:48;;;;;;;;;;;;;;;8.76;54.32;99040.81;5034787;28;19917;-79
2022/11/29 00:48:13;;;;;;;;;;;;;;;8.75;54.62;99033.94;5051737;28;19928;-79
2022/11/29 00:50:38;;;;;;;;;;;;;;;8.73;54.60;99031.44;5067932;28;19917;-81
2022/11/29 00:53:04;;;;;;;;;;;;;;;8.73;54.16;99035.78;5068040;28;20318;-80
2022/11/29 00:55:29;;;;;;;;;;;;;;;8.72;54.61;99029.75;5067779;28;20387;-79
2022/11/29 00:57:54;;;;;;;;;;;;;;;8.73;54.69;99033.19;5069479;28;20303;-78
2022/11/29 01:00:19;;;;;;;;;;;;;;;8.73;54.35;99022.78;5068311;28;19925;-78
2022/11/29 01:02:45;;;;;;;;;;;;;;;8.73;54.34;99027.97;5068072;28;20015;-80
2022/11/29 01:05:10;;;;;;;;;;;;;;;8.73;54.53;99025.38;5051155;28;20378;-78
2022/11/29 01:07:35;;;;;;;;;;;;;;;8.73;54.15;99034.03;5034342;28;19917;-78
2022/11/29 01:10:01;;;;;;;;;;;;;;;8.71;54.43;99033.28;5052964;28;19917;-79
2022/11/29 01:12:26;;;;;;;;;;;;;;;8.71;54.65;99037.66;5052565;28;19960;-78
2022/11/29 01:14:51;;;;;;;;;;;;;;;8.71;54.69;99033.28;5034898;28;19916;-78
2022/11/29 01:17:17;;;;;;;;;;;;;;;8.71;54.53;99038.50;5068378;28;19955;-78
2022/11/29 01:19:42;;;;;;;;;;;;;;;8.72;54.68;99042.78;5051343;28;19920;-79
2022/11/29 01:22:07;;;;;;;;;;;;;;;8.73;54.64;99041.00;5034476;28;19917;-79
2022/11/29 01:24:32;;;;;;;;;;;;;;;8.72;54.68;99041.94;5052695;28;19924;-79
2022/11/29 01:26:58;;;;;;;;;;;;;;;8.73;54.29;99031.44;5051429;28;19917;-79
2022/11/29 01:29:23;;;;;;;;;;;;;;;8.74;54.51;99037.47;5051098;28;20369;-80
2022/11/29 01:31:48;;;;;;;;;;;;;;;8.76;54.23;99036.44;5067864;28;20565;-80
2022/11/29 01:34:14;;;;;;;;;;;;;;;8.76;54.44;99028.63;5046704;28;19978;-80
2022/11/29 01:36:39;;;;;;;;;;;;;;;8.77;54.63;99032.06;5034279;28;19927;-80
2022/11/29 01:39:04;;;;;;;;;;;;;;;8.76;54.38;99033.84;5051880;28;20007;-80
2022/11/29 01:41:30;;;;;;;;;;;;;;;8.75;54.51;99032.16;5018128;28;20007;-79
2022/11/29 01:43:59;;;;;;;;;;;;;;;8.76;54.70;99027.78;5018165;28;19917;-79
2022/11/29 01:46:24;;;;;;;;;;;;;;;8.76;54.68;99027.78;5052675;28;20395;-80
2022/11/29 01:48:51;;;;;;;;;;;;;;;8.76;54.64;99031.25;5034204;28;19924;-80
2022/11/29 01:51:16;;;;;;;;;;;;;;;8.76;54.82;99028.63;5034364;28;19952;-79
2022/11/29 01:53:41;;;;;;;;;;;;;;;8.75;54.75;99024.34;5017765;28;20351;-80
2022/11/29 01:56:07;;;;;;;;;;;;;;;8.77;54.46;99026.88;5034326;28;19923;-80
2022/11/29 01:58:33;;;;;;;;;;;;;;;8.78;54.44;99028.53;5034366;28;20411;-79
2022/11/29 02:00:58;;;;;;;;;;;;;;;8.77;54.58;99024.25;5017877;28;19923;-79
2022/11/29 02:03:23;;;;;;;;;;;;;;;8.77;54.50;99032.91;5017511;28;19917;-79
2022/11/29 02:05:49;;;;;;;;;;;;;;;8.75;54.56;99013.94;5017675;28;19916;-79
2022/11/29 02:08:17;;;;;;;;;;;;;;;8.75;54.53;99015.72;5038413;28;20390;-78
2022/11/29 02:10:51;;;;;;;;;;;;;;;8.77;54.86;99021.66;5037892;28;20434;-78
2022/11/29 02:13:26;;;;;;;;;;;;;;;8.77;54.83;99016.44;5055704;28;19917;-79
2022/11/29 02:15:53;;;;;;;;;;;;;;;8.75;54.83;99007.91;5037738;28;19916;-78
2022/11/29 02:18:20;;;;;;;;;;;;;;;8.75;54.89;99011.34;5021225;28;19917;-79
2022/11/29 02:20:54;;;;;;;;;;;;;;;8.76;54.70;99009.56;5037274;28;19921;-80
2022/11/29 02:23:23;;;;;;;;;;;;;;;8.75;54.66;99013.94;5055501;28;19921;-80
2022/11/29 02:26:03;;;;;;;;;;;;;;;8.75;54.61;99011.34;5055718;28;19917;-78
2022/11/29 02:28:38;;;;;;;;;;;;;;;8.73;54.60;99010.63;5037430;28;19921;-79
2022/11/29 02:31:18;;;;;;;;;;;;;;;8.73;54.75;99018.44;5021023;28;19917;-79
2022/11/29 02:34:02;;;;;;;;;;;;;;;8.74;54.98;99011.44;5055491;28;19917;-79
2022/11/29 02:36:42;;;;;;;;;;;;;;;8.73;54.61;99018.44;5055461;28;20011;-80
2022/11/29 02:39:17;;;;;;;;;;;;;;;8.73;54.92;99017.56;5055683;28;19916;-79
2022/11/29 02:41:48;;;;;;;;;;;;;;;8.73;54.68;99021.03;5055445;28;19917;-79
2022/11/29 02:44:13;;;;;;;;;;;;;;;8.73;54.85;99022.78;5055313;28;19917;-80
2022/11/29 02:46:39;;;;;;;;;;;;;;;8.72;54.97;99018.53;5055521;28;19943;-78
2022/11/29 02:49:23;;;;;;;;;;;;;;;8.73;54.95;99021.03;5054647;28;19967;-78
2022/11/29 02:52:03;;;;;;;;;;;;;;;8.71;54.83;99022.88;5055026;28;19916;-79
2022/11/29 02:54:32;;;;;;;;;;;;;;;8.70;54.58;99021.22;5037223;28;19916;-85
2022/11/29 02:57:00;;;;;;;;;;;;;;;8.71;54.91;99022.88;5037492;28;19943;-80
2022/11/29 02:59:26;;;;;;;;;;;;;;;8.70;54.78;99023.81;5055265;28;19952;-79
2022/11/29 03:02:00;;;;;;;;;;;;;;;8.70;54.76;99016.03;5054896;28;20390;-78
2022/11/29 03:04:47;;;;;;;;;;;;;;;8.70;54.78;99023.81;5054748;28;19917;-81
2022/11/29 03:07:22;;;;;;;;;;;;;;;8.68;54.84;99010.91;5036987;28;19978;-79
2022/11/29 03:09:52;;;;;;;;;;;;;;;8.68;54.59;99013.50;5019914;28;20003;-78
2022/11/29 03:12:20;;;;;;;;;;;;;;;8.69;54.58;99016.94;5037081;28;19917;-80
2022/11/29 03:14:53;;;;;;;;;;;;;;;8.69;54.88;99020.38;5036809;28;19917;-79
2022/11/29 03:17:18;;;;;;;;;;;;;;;8.67;54.66;99017.03;5019961;28;19981;-80
2022/11/29 03:19:56;;;;;;;;;;;;;;;8.67;54.67;99022.25;5036347;28;19976;-80
2022/11/29 03:22:30;;;;;;;;;;;;;;;8.67;54.60;99021.41;5036764;28;19940;-79
2022/11/29 03:24:58;;;;;;;;;;;;;;;8.68;54.92;99020.47;5036396;28;19923;-80
2022/11/29 03:27:36;;;;;;;;;;;;;;;8.67;54.97;99018.81;5036791;28;19967;-79
2022/11/29 03:30:03;;;;;;;;;;;;;;;8.65;54.67;99024.13;5054646;28;19952;-81
2022/11/29 03:32:41;;;;;;;;;;;;;;;8.65;54.75;99029.31;5036565;28;19917;-80
2022/11/29 03:35:09;;;;;;;;;;;;;;;8.66;54.96;99019.75;5036328;28;20281;-79
2022/11/29 03:37:54;;;;;;;;;;;;;;;8.66;54.71;99028.38;5019853;28;19924;-78
2022/11/29 03:40:38;;;;;;;;;;;;;;;8.65;54.67;99039.72;4973552;28;19965;-79
2022/11/29 03:43:07;;;;;;;;;;;;;;;8.64;55.18;99037.22;4973667;28;19922;-78
2022/11/29 03:45:36;;;;;;;;;;;;;;;8.64;54.89;99042.44;4973005;28;20401;-79
2022/11/29 03:48:06;;;;;;;;;;;;;;;8.63;54.60;99040.75;4973057;28;19922;-80
2022/11/29 03:50:33;;;;;;;;;;;;;;;8.63;54.83;99041.59;4956879;28;19918;-78
2022/11/29 03:53:16;;;;;;;;;;;;;;;8.63;55.27;99045.94;4973757;28;19924;-78
2022/11/29 03:56:01;;;;;;;;;;;;;;;8.65;55.12;99044.09;4972853;28;19919;-78
2022/11/29 03:58:30;;;;;;;;;;;;;;;8.65;55.14;99049.28;4957077;28;19933;-78
2022/11/29 04:01:04;;;;;;;;;;;;;;;8.65;54.80;99054.50;4956639;28;20013;-78
2022/11/29 04:03:29;;;;;;;;;;;;;;;8.65;54.80;99038.88;4972947;28;19926;-78
2022/11/29 04:06:18;;;;;;;;;;;;;;;8.63;55.35;99041.59;4972162;28;20765;-78
2022/11/29 04:08:49;;;;;;;;;;;;;;;8.63;54.97;99048.56;4972611;28;19918;-83
2022/11/29 04:11:53;;;;;;;;;;;;;;;8.63;54.92;99046.81;4973009;28;19918;-81
2022/11/29 04:14:30;;;;;;;;;;;;;;;8.65;54.84;99055.34;4952433;28;19925;-80
2022/11/29 04:16:56;;;;;;;;;;;;;;;8.66;54.91;99054.41;4987769;28;19925;-84
2022/11/29 04:19:39;;;;;;;;;;;;;;;8.66;55.18;99063.97;5009868;28;19922;-85
2022/11/29 04:22:37;;;;;;;;;;;;;;;8.66;54.93;99061.38;5009419;28;19924;-87
2022/11/29 04:25:02;;;;;;;;;;;;;;;8.67;55.17;99063.88;4989389;28;19933;-91
2022/11/29 04:27:28;;;;;;;;;;;;;;;8.67;54.77;99063.06;4990216;28;19926;-79
2022/11/29 04:29:59;;;;;;;;;;;;;;;8.78;61.83;99071.00;4993146;28;19928;-79
2022/11/29 04:32:27;;;;;;;;;;;;;;;8.91;62.58;99070.25;4990223;28;20016;-83
2022/11/29 04:34:56;;;;;;;;;;;;;;;8.93;60.86;99068.38;4990286;28;19922;-78
2022/11/29 04:37:27;;;;;;;;;;;;;;;8.99;63.90;99071.41;4969619;28;19925;-76
2022/11/29 04:39:57;;;;;;;;;;;;;;;9.00;61.75;99062.66;4990183;28;20004;-77
2022/11/29 04:42:25;;;;;;;;;;;;;;;9.00;60.80;99062.66;4967993;28;19926;-76
2022/11/29 04:45:19;;;;;;;;;;;;;;;9.05;62.74;99057.16;4987381;28;19928;-82
2022/11/29 04:47:49;;;;;;;;;;;;;;;9.54;68.93;99056.53;4931926;29;19930;-80
2022/11/29 04:50:17;;;;;;;;;;;;;;;9.54;65.88;99061.75;4914462;29;20333;-78
2022/11/29 04:52:50;;;;;;;;;;;;;;;9.49;64.38;99061.22;4932132;29;19969;-78
2022/11/29 04:55:21;;;;;;;;;;;;;;;9.44;63.60;99073.72;4930398;29;20321;-76
2022/11/29 04:57:48;;;;;;;;;;;;;;;9.37;62.70;99068.06;4931567;29;19931;-76
2022/11/29 05:00:14;;;;;;;;;;;;;;;9.31;62.31;99063.25;4951797;28;19928;-78
2022/11/29 05:02:59;;;;;;;;;;;;;;;9.29;61.91;99066.91;4939131;28;19929;-79
2022/11/29 05:05:43;;;;;;;;;;;;;;;9.23;61.59;99071.59;4942898;28;20013;-78
2022/11/29 05:08:16;;;;;;;;;;;;;;;9.19;61.18;99072.72;4961844;28;19919;-77
2022/11/29 05:11:16;;;;;;;;;;;;;;;9.17;60.52;99076.34;4929579;28;20269;-78
2022/11/29 05:13:48;;;;;;;;;;;;;;;9.13;60.56;99078.34;4940700;29;20427;-79
2022/11/29 05:16:26;;;;;;;;;;;;;;;9.11;59.90;99092.38;4933451;29;20476;-78
2022/11/29 05:19:10;;;;;;;;;;;;;;;9.07;59.73;99089.13;4942732;29;19950;-77
2022/11/29 05:21:35;;;;;;;;;;;;;;;9.05;59.71;99094.44;4943179;29;19930;-77
2022/11/29 05:24:19;;;;;;;;;;;;;;;9.04;59.50;99092.78;4954142;28;20325;-78
2022/11/29 05:26:49;;;;;;;;;;;;;;;9.03;59.49;99092.91;4969835;28;19918;-78
2022/11/29 05:29:23;;;;;;;;;;;;;;;9.00;59.03;99093.09;4937989;28;19958;-78
2022/11/29 05:32:06;;;;;;;;;;;;;;;9.00;59.07;99093.09;4935287;28;19973;-78
2022/11/29 05:34:36;;;;;;;;;;;;;;;8.99;58.59;99101.81;4968030;28;19918;-79
2022/11/29 05:37:20;;;;;;;;;;;;;;;8.97;58.81;99112.34;4953700;28;19918;-80
2022/11/29 05:39:54;;;;;;;;;;;;;;;8.96;58.29;99105.44;4969527;28;19922;-79
2022/11/29 05:42:38;;;;;;;;;;;;;;;8.97;58.16;99099.31;4956303;28;19926;-79
2022/11/29 05:45:04;;;;;;;;;;;;;;;8.95;57.96;99100.34;4973317;28;20008;-80
2022/11/29 05:47:31;;;;;;;;;;;;;;;8.93;58.14;99097.84;5007362;28;20455;-80
2022/11/29 05:50:02;;;;;;;;;;;;;;;8.93;58.08;99107.41;5037366;28;19916;-80
2022/11/29 05:52:47;;;;;;;;;;;;;;;8.92;58.04;99104.00;5036941;28;19917;-79
2022/11/29 05:55:21;;;;;;;;;;;;;;;8.92;57.69;99092.72;5052772;28;19923;-79
2022/11/29 05:57:57;;;;;;;;;;;;;;;8.88;57.71;99098.13;5036752;28;19963;-79
2022/11/29 06:00:22;;;;;;;;;;;;;;;8.88;57.37;99092.91;5037140;28;19995;-80
2022/11/29 06:02:50;;;;;;;;;;;;;;;8.88;57.48;99095.50;5045083;28;19925;-79
2022/11/29 06:05:18;;;;;;;;;;;;;;;8.85;57.39;99090.50;5044932;28;19920;-79
2022/11/29 06:07:44;;;;;;;;;;;;;;;8.86;57.18;99079.16;5020234;28;19921;-78
2022/11/29 06:10:16;;;;;;;;;;;;;;;8.84;56.79;99081.03;5033966;28;19939;-79
2022/11/29 06:12:43;;;;;;;;;;;;;;;8.85;57.17;99067.06;5019972;28;19939;-79
2022/11/29 06:15:12;;;;;;;;;;;;;;;8.84;56.79;99081.03;5044772;28;19916;-77
2022/11/29 06:17:43;;;;;;;;;;;;;;;8.84;56.77;99078.44;5036175;28;19916;-76
2022/11/29 06:20:25;;;;;;;;;;;;;;;8.86;56.92;99083.56;5033349;28;19920;-78
2022/11/29 06:23:00;;;;;;;;;;;;;;;8.88;56.63;99092.09;5052266;28;19956;-81
2022/11/29 06:25:32;;;;;;;;;;;;;;;9.12;64.85;99097.47;5055316;28;20489;-82
2022/11/29 06:27:58;;;;;;;;;;;;;;;9.20;63.33;99089.19;5041834;28;19970;-82
2022/11/29 06:30:35;;;;;;;;;;;;;;;9.27;61.51;99095.69;5036441;28;19925;-75
2022/11/29 06:33:16;;;;;;;;;;;;;;;9.27;60.92;99090.47;5018890;28;19960;-78
2022/11/29 06:35:44;;;;;;;;;;;;;;;9.24;60.54;99095.88;5018926;28;19960;-77
2022/11/29 06:38:26;;;;;;;;;;;;;;;9.27;59.80;99094.84;5033065;28;19965;-75
2022/11/29 06:40:51;;;;;;;;;;;;;;;9.24;59.27;99094.09;5016944;28;20319;-77
2022/11/29 06:43:17;;;;;;;;;;;;;;;9.25;59.37;99094.94;5017896;28;19943;-80
2022/11/29 06:45:49;;;;;;;;;;;;;;;9.31;61.60;99096.31;5036165;28;19917;-78
2022/11/29 06:48:17;;;;;;;;;;;;;;;9.34;61.26;99098.72;5042243;28;19917;-79
2022/11/29 06:50:48;;;;;;;;;;;;;;;9.34;60.55;99098.72;5035846;28;19921;-78
2022/11/29 06:53:17;;;;;;;;;;;;;;;9.31;60.28;99094.53;5050976;28;19923;-79
2022/11/29 06:55:52;;;;;;;;;;;;;;;9.31;60.19;99088.47;5035589;28;19955;-77
2022/11/29 06:58:36;;;;;;;;;;;;;;;9.31;59.67;99088.47;5050740;28;19948;-76
2022/11/29 07:01:15;;;;;;;;;;;;;;;9.32;59.05;99084.94;5052414;28;19946;-77
2022/11/29 07:03:56;;;;;;;;;;;;;;;9.35;58.90;99082.97;5017789;28;19921;-78
2022/11/29 07:06:22;;;;;;;;;;;;;;;9.36;59.40;99084.66;5052489;28;20023;-80
2022/11/29 07:08:49;;;;;;;;;;;;;;;9.98;69.07;99085.75;5035359;28;20443;-77
2022/11/29 07:11:14;;;;;;;;;;;;;;;10.11;66.02;99088.34;5060688;28;19917;-77
2022/11/29 07:13:40;;;;;;;;;;;;;;;10.09;63.45;99082.41;5035419;28;19928;-78
2022/11/29 07:16:25;;;;;;;;;;;;;;;10.06;61.94;99085.25;5059804;28;19917;-78
2022/11/29 07:18:50;;;;;;;;;;;;;;;10.00;61.33;99083.88;5048587;28;19921;-78
2022/11/29 07:21:38;;;;;;;;;;;;;;;9.94;60.76;99092.09;5053528;28;20453;-78
2022/11/29 07:24:06;;;;;;;;;;;;;;;9.91;60.16;99095.75;4990323;28;19976;-78
2022/11/29 07:26:45;;;;;;;;;;;;;;;9.88;59.73;99089.91;4989102;28;19918;-78
2022/11/29 07:29:10;;;;;;;;;;;;;;;9.86;59.43;99091.81;4956419;28;20025;-77
2022/11/29 07:31:45;;;;;;;;;;;;;;;9.84;58.86;99102.34;4991438;28;20316;-77
2022/11/29 07:34:15;;;;;;;;;;;;;;;9.82;58.68;99103.38;4972839;28;19921;-79
2022/11/29 07:36:40;;;;;;;;;;;;;;;9.80;58.58;99100.84;4975051;28;20385;-77
2022/11/29 07:39:28;;;;;;;;;;;;;;;9.79;58.30;99101.81;4991169;28;19924;-81
2022/11/29 07:42:05;;;;;;;;;;;;;;;9.78;57.95;99107.97;4956728;28;20471;-78
2022/11/29 07:44:49;;;;;;;;;;;;;;;9.78;57.84;99113.19;4988660;28;20418;-76
2022/11/29 07:47:14;;;;;;;;;;;;;;;9.77;57.63;99108.88;4989348;28;19922;-77
2022/11/29 07:49:39;;;;;;;;;;;;;;;9.74;57.20;99112.56;4991083;28;20440;-78
2022/11/29 07:52:05;;;;;;;;;;;;;;;9.88;64.93;99114.25;4968801;28;19929;-78
2022/11/29 07:54:31;;;;;;;;;;;;;;;9.89;62.56;99117.69;4974730;28;19992;-77
2022/11/29 07:56:56;;;;;;;;;;;;;;;9.88;61.52;99108.16;4990767;28;20304;-76
2022/11/29 07:59:21;;;;;;;;;;;;;;;9.88;60.66;99110.78;4991241;28;20359;-81
2022/11/29 08:01:46;;;;;;;;;;;;;;;9.87;60.23;99114.34;5004082;28;19928;-76
2022/11/29 08:04:12;;;;;;;;;;;;;;;9.87;59.76;99116.94;5033031;28;19921;-76
2022/11/29 08:06:38;;;;;;;;;;;;;;;9.86;59.32;99116.09;5018185;28;19916;-77
2022/11/29 08:09:03;;;;;;;;;;;;;;;9.86;59.08;99113.50;5059168;28;20007;-78
2022/11/29 08:11:29;;;;;;;;;;;;;;;9.87;58.80;99112.56;5018501;28;19920;-77
2022/11/29 08:14:01;;;;;;;;;;;;;;;9.88;58.63;99116.84;5059587;28;19956;-76
2022/11/29 08:16:26;;;;;;;;;;;;;;;9.91;58.22;99115.78;5034917;28;19916;-77
2022/11/29 08:18:52;;;;;;;;;;;;;;;9.91;58.21;99123.59;5042138;28;20446;-78
2022/11/29 08:21:17;;;;;;;;;;;;;;;10.03;65.63;99122.78;5017914;28;19921;-78
2022/11/29 08:24:11;;;;;;;;;;;;;;;10.12;63.75;99123.91;5017840;28;19913;-77
2022/11/29 08:26:37;;;;;;;;;;;;;;;10.13;62.34;99123.81;5016354;28;20388;-78
2022/11/29 08:29:02;;;;;;;;;;;;;;;10.50;69.51;99131.75;5020919;28;19960;-80
2022/11/29 08:31:27;;;;;;;;;;;;;;;11.07;69.88;99136.50;4985916;28;19918;-79
2022/11/29 08:33:53;;;;;;;;;;;;;;;11.55;67.58;99129.50;5003826;28;20453;-81
2022/11/29 08:36:18;;;;;;;;;;;;;;;11.91;65.42;99130.31;5019979;28;19955;-80
2022/11/29 08:38:43;;;;;;;;;;;;;;;12.23;64.26;99126.22;5002375;28;19940;-81
2022/11/29 08:41:09;;;;;;;;;;;;;;;12.47;62.93;99119.06;5004632;28;19917;-81
2022/11/29 08:43:35;;;;;;;;;;;;;;;12.69;62.12;99122.63;5019556;28;19917;-83
2022/11/29 08:46:00;;;;;;;;;;;;;;;12.88;61.83;99116.75;4986605;28;20319;-81
2022/11/29 08:48:25;;;;;;;;;;;;;;;13.05;60.97;99120.66;5020598;28;19917;-76
2022/11/29 08:50:51;;;;;;;;;;;;;;;13.20;60.19;99108.09;5019384;28;20048;-85
2022/11/29 08:56:00;;;;;;;;;;;;;;;13.55;58.89;99105.25;5020228;28;20048;-78
2022/11/29 08:58:26;;;;;;;;;;;;;;;13.53;58.53;99101.91;5032852;28;19928;-90
2022/11/29 09:00:51;;;;;;;;;;;;;;;13.46;59.41;99102.56;5017727;28;20310;-88
2022/11/29 09:06:04;;;;;;;;;;;;;;;13.03;57.54;99091.13;5036277;28;19932;-83
2022/11/29 09:08:30;;;;;;;;;;;;;;;12.79;57.26;99093.91;5035273;28;20174;-84
2022/11/29 09:10:55;;;;;;;;;;;;;;;12.55;57.38;99091.47;5034093;28;19921;-87
2022/11/29 09:13:21;;;;;;;;;;;;;;;12.36;58.01;99102.53;5058549;28;20379;-77
2022/11/29 09:15:46;;;;;;;;;;;;;;;12.19;57.60;99094.22;5050766;28;19917;-76
2022/11/29 09:18:11;;;;;;;;;;;;;;;12.03;57.83;99088.47;5033706;28;19916;-77
2022/11/29 09:20:37;;;;;;;;;;;;;;;11.87;58.09;99094.03;5058095;28;19921;-70
2022/11/29 09:23:02;;;;;;;;;;;;;;;11.76;58.12;99081.75;5033432;28;20394;-71
2022/11/29 09:25:28;;;;;;;;;;;;;;;11.65;58.28;99087.78;5058083;28;19924;-69
2022/11/29 09:27:53;;;;;;;;;;;;;;;11.74;63.37;99081.06;5041373;28;20486;-71
2022/11/29 09:30:18;;;;;;;;;;;;;;;11.74;61.83;99075.81;5033594;28;19917;-71
2022/11/29 09:32:45;;;;;;;;;;;;;;;11.68;60.85;99078.91;5033031;28;19921;-71
2022/11/29 09:35:10;;;;;;;;;;;;;;;11.61;59.98;99065.47;5050865;28;20004;-72
2022/11/29 09:37:35;;;;;;;;;;;;;;;11.55;60.21;99073.75;5033420;28;20012;-73
2022/11/29 09:40:02;;;;;;;;;;;;;;;11.50;59.67;99063.66;5041224;28;20388;-75
2022/11/29 09:42:46;;;;;;;;;;;;;;;11.43;59.54;99061.59;5016736;28;20016;-74
2022/11/29 09:45:17;;;;;;;;;;;;;;;11.37;59.77;99057.69;5048221;28;19944;-75
2022/11/29 09:47:57;;;;;;;;;;;;;;;11.30;59.64;99053.84;5016434;28;19927;-73
2022/11/29 09:50:33;;;;;;;;;;;;;;;11.25;59.48;99055.97;5049647;28;19932;-72
2022/11/29 09:53:11;;;;;;;;;;;;;;;11.21;59.45;99055.34;5040163;28;20376;-70
2022/11/29 09:55:51;;;;;;;;;;;;;;;11.15;59.50;99056.66;5049101;28;20387;-70
2022/11/29 09:58:19;;;;;;;;;;;;;;;11.13;59.34;99055.06;5048520;28;19928;-69
2022/11/29 10:00:49;;;;;;;;;;;;;;;11.09;59.32;99057.09;5031700;28;20319;-69
2022/11/29 10:03:20;;;;;;;;;;;;;;;11.07;59.11;99056.38;5037372;28;20003;-70
2022/11/29 10:05:48;;;;;;;;;;;;;;;11.04;59.26;99061.81;5039830;28;20609;-70
2022/11/29 10:08:25;;;;;;;;;;;;;;;11.03;58.85;99049.69;5065678;28;19924;-69
2022/11/29 10:10:51;;;;;;;;;;;;;;;11.02;58.71;99058.47;5049307;28;19921;-68
2022/11/29 10:13:22;;;;;;;;;;;;;;;11.02;58.66;99045.41;5066683;28;19920;-70
2022/11/29 10:15:49;;;;;;;;;;;;;;;11.00;58.63;99052.53;5067451;28;19923;-70
2022/11/29 10:18:18;;;;;;;;;;;;;;;10.99;58.61;99054.31;5050750;28;19923;-68
2022/11/29 10:20:44;;;;;;;;;;;;;;;10.99;58.60;99053.47;5047146;28;19921;-69
2022/11/29 10:23:28;;;;;;;;;;;;;;;10.99;58.35;99054.31;5031174;28;19975;-69
2022/11/29 10:25:54;;;;;;;;;;;;;;;10.99;58.39;99059.53;5012216;28;19921;-69
2022/11/29 10:28:21;;;;;;;;;;;;;;;11.00;58.43;99042.09;5029988;28;19923;-69
2022/11/29 10:30:46;;;;;;;;;;;;;;;10.99;58.37;99049.09;5015876;28;19918;-70
2022/11/29 10:33:17;;;;;;;;;;;;;;;10.99;58.03;99050.84;5031465;28;19917;-71
2022/11/29 10:35:42;;;;;;;;;;;;;;;11.00;57.97;99057.75;5014491;28;19952;-69
2022/11/29 10:38:08;;;;;;;;;;;;;;;10.99;57.92;99050.84;5015729;28;19924;-70
2022/11/29 10:40:33;;;;;;;;;;;;;;;10.99;57.71;99038.66;5030603;28;19955;-70
2022/11/29 10:42:59;;;;;;;;;;;;;;;10.99;57.91;99038.66;5031208;28;20368;-68
2022/11/29 10:45:34;;;;;;;;;;;;;;;10.99;57.91;99038.66;5031060;28;19918;-69
2022/11/29 10:48:08;;;;;;;;;;;;;;;11.00;57.75;99037.69;5015339;28;19961;-70
2022/11/29 10:50:34;;;;;;;;;;;;;;;11.00;57.51;99042.09;5014115;28;19918;-68
2022/11/29 10:53:02;;;;;;;;;;;;;;;10.98;57.41;99033.53;5030714;28;19925;-69
2022/11/29 10:55:27;;;;;;;;;;;;;;;10.97;57.37;99030.06;5030855;28;19921;-68
2022/11/29 10:58:08;;;;;;;;;;;;;;;10.95;57.36;99025.94;5014030;28;20370;-69
2022/11/29 11:00:43;;;;;;;;;;;;;;;10.94;57.39;99027.72;5015122;28;19924;-70
2022/11/29 11:03:15;;;;;;;;;;;;;;;10.95;57.26;99020.69;5030370;28;19960;-68
2022/11/29 11:05:40;;;;;;;;;;;;;;;10.91;57.06;99020.09;5013930;28;19917;-69
2022/11/29 11:08:14;;;;;;;;;;;;;;;10.90;57.10;99021.03;5015497;28;20277;-71
2022/11/29 11:10:40;;;;;;;;;;;;;;;10.89;57.20;99021.97;5014039;28;19924;-69
2022/11/29 11:13:07;;;;;;;;;;;;;;;10.88;56.97;99017.72;5030324;28;19940;-72
2022/11/29 11:15:32;;;;;;;;;;;;;;;10.89;56.93;99016.75;5013350;28;19918;-72
2022/11/29 11:18:03;;;;;;;;;;;;;;;10.90;57.01;99013.19;5030054;28;19928;-71
2022/11/29 11:20:29;;;;;;;;;;;;;;;10.89;56.94;99011.53;5013132;28;19987;-71
2022/11/29 11:23:02;;;;;;;;;;;;;;;10.89;56.87;99006.28;5030485;28;19921;-72
2022/11/29 11:25:37;;;;;;;;;;;;;;;10.88;56.83;99007.25;5030132;28;19917;-70
2022/11/29 11:28:29;;;;;;;;;;;;;;;10.89;56.83;99006.28;5013495;28;19939;-71
2022/11/29 11:31:02;;;;;;;;;;;;;;;10.88;56.71;99009.03;5013584;28;19917;-69
2022/11/29 11:33:28;;;;;;;;;;;;;;;10.86;56.61;99006.53;5013276;28;19924;-70
2022/11/29 11:36:02;;;;;;;;;;;;;;;10.87;56.71;99008.19;5013236;28;19925;-72
2022/11/29 11:38:28;;;;;;;;;;;;;;;10.88;56.41;98998.56;5014519;28;19917;-71
2022/11/29 11:41:01;;;;;;;;;;;;;;;10.88;56.50;98994.22;5047535;28;19978;-70
2022/11/29 11:43:26;;;;;;;;;;;;;;;10.86;56.60;98996.94;5016182;28;20392;-70
2022/11/29 11:45:52;;;;;;;;;;;;;;;10.87;56.26;98989.91;5034270;28;19924;-70
2022/11/29 11:48:18;;;;;;;;;;;;;;;10.86;56.58;98991.72;5015767;28;19917;-71
2022/11/29 11:50:44;;;;;;;;;;;;;;;10.85;56.44;98986.59;5034199;28;19917;-70
2022/11/29 11:53:38;;;;;;;;;;;;;;;10.86;56.37;98988.25;5016332;28;19917;-72
2022/11/29 11:56:04;;;;;;;;;;;;;;;10.88;56.27;98982.91;4992940;28;19925;-71
2022/11/29 11:58:36;;;;;;;;;;;;;;;10.87;56.33;98984.69;4992351;28;19925;-72
2022/11/29 12:01:10;;;;;;;;;;;;;;;10.89;56.16;98979.34;4993082;28;20439;-70
2022/11/29 12:03:38;;;;;;;;;;;;;;;10.90;56.02;98981.03;4991792;28;19953;-71
2022/11/29 12:06:22;;;;;;;;;;;;;;;10.92;56.19;98989.59;4992566;28;20004;-70
2022/11/29 12:08:47;;;;;;;;;;;;;;;10.90;55.91;98978.44;4992227;28;19918;-71
2022/11/29 12:11:13;;;;;;;;;;;;;;;10.91;56.07;98980.06;4976378;28;20053;-71
2022/11/29 12:13:40;;;;;;;;;;;;;;;10.90;56.11;98981.84;4976144;28;20304;-72
2022/11/29 12:16:15;;;;;;;;;;;;;;;10.89;55.92;98980.19;4975944;28;19918;-72
2022/11/29 12:18:42;;;;;;;;;;;;;;;10.90;55.91;98979.25;4959345;28;19938;-73
2022/11/29 12:21:07;;;;;;;;;;;;;;;10.92;55.94;98979.13;4992701;28;19918;-72
2022/11/29 12:23:43;;;;;;;;;;;;;;;10.93;55.80;98986.03;4992088;28;20355;-71
2022/11/29 12:26:11;;;;;;;;;;;;;;;10.95;55.82;98978.91;4992369;28;19918;-71
2022/11/29 12:28:38;;;;;;;;;;;;;;;10.97;56.04;98984.84;4991922;28;19954;-70
2022/11/29 12:31:21;;;;;;;;;;;;;;;10.98;55.82;98978.69;4975912;28;19928;-70
2022/11/29 12:33:59;;;;;;;;;;;;;;;10.97;55.83;98977.84;5033699;28;20300;-70
2022/11/29 12:36:30;;;;;;;;;;;;;;;10.98;55.84;98983.91;5033452;28;19917;-71
2022/11/29 12:38:58;;;;;;;;;;;;;;;11.00;55.94;98974.16;5033005;28;19927;-71
2022/11/29 12:41:29;;;;;;;;;;;;;;;10.99;55.77;98981.19;5033433;28;19944;-71
2022/11/29 12:44:02;;;;;;;;;;;;;;;10.97;55.75;98980.44;5033423;28;19967;-71
2022/11/29 12:46:27;;;;;;;;;;;;;;;10.96;56.11;98983.16;5032270;28;19921;-70
2022/11/29 12:49:07;;;;;;;;;;;;;;;10.93;56.19;98979.03;5032938;28;19971;-70
2022/11/29 12:51:51;;;;;;;;;;;;;;;10.93;56.30;98986.84;5014235;28;20366;-72
2022/11/29 12:54:39;;;;;;;;;;;;;;;10.92;56.17;98984.34;5033119;28;20402;-71
2022/11/29 12:57:10;;;;;;;;;;;;;;;10.90;55.99;98975.81;5011848;28;19928;-71
2022/11/29 12:59:59;;;;;;;;;;;;;;;10.87;56.31;98984.69;5013012;28;19921;-71
2022/11/29 13:02:27;;;;;;;;;;;;;;;10.86;56.36;98981.25;4991750;28;19962;-73
2022/11/29 13:04:59;;;;;;;;;;;;;;;10.86;56.16;98985.63;4991302;28;19965;-70
2022/11/29 13:07:27;;;;;;;;;;;;;;;10.82;56.32;98978.97;4991378;28;19930;-71
2022/11/29 13:09:52;;;;;;;;;;;;;;;10.80;56.55;98975.63;4991186;28;20427;-70
2022/11/29 13:12:25;;;;;;;;;;;;;;;10.79;56.55;98980.03;4991355;28;20009;-71
2022/11/29 13:14:50;;;;;;;;;;;;;;;10.76;56.77;98982.03;4991410;28;19921;-70
2022/11/29 13:17:18;;;;;;;;;;;;;;;10.74;56.63;98982.16;4991391;28;19925;-70
2022/11/29 13:19:49;;;;;;;;;;;;;;;10.73;56.81;98982.25;4990536;28;19960;-70